Artikler
   Vis nr. 
Nr. Artikkeltittel Dato Skribent Treff
1 Tur/retur Guayaquil – Salinas (SEGU – SESA) lørdag 6.1.2007 med Andreas Andersen fredag 26. januar 2007 Helge Aasen 2444
 
 
METAR
2018/11/21 16:20 ENCN 211620Z 03012KT 9999 FEW013 BKN024 02/01 Q1032
TAF
2018/11/21 15:36 TAF TAF ENCN 211400Z 2115/2122 05010KT 9999 -RA SCT008 BKN012 TEMPO 2115/2122 SCT012 BKN018
LN-KFK
Operativ VFR-natt
VFR dag
07:41 - 16:46
Brannvakt
Inaktiv
Banner
Banner
Banner
Banner
Banner